createdAt,value
2022-11-02T00:02:01.011Z,0.75
2022-11-02T00:04:44.050Z,0.90
2022-11-02T00:07:26.787Z,1.00
2022-11-02T00:10:10.087Z,1.10
2022-11-02T00:12:53.456Z,0.90
2022-11-02T00:15:37.283Z,1.20
2022-11-02T00:18:21.447Z,0.95
2022-11-02T00:21:04.650Z,1.00
2022-11-02T00:23:47.679Z,1.00
2022-11-02T00:26:30.369Z,0.73
2022-11-02T00:29:12.976Z,1.30
2022-11-02T00:31:55.675Z,1.20
2022-11-02T00:34:40.058Z,0.82
2022-11-02T00:37:22.849Z,0.73
2022-11-02T00:40:06.441Z,0.90
2022-11-02T00:42:49.311Z,0.75
2022-11-02T00:45:32.580Z,0.90
2022-11-02T00:48:15.271Z,0.80
2022-11-02T00:50:59.489Z,0.80
2022-11-02T00:53:44.452Z,0.90
2022-11-02T00:56:27.267Z,0.85
2022-11-02T00:59:09.985Z,0.90
2022-11-02T01:01:53.009Z,1.10
2022-11-02T01:04:35.797Z,0.82
2022-11-02T01:07:20.073Z,0.90
2022-11-02T01:10:03.211Z,1.13
2022-11-02T01:12:46.020Z,0.70
2022-11-02T01:15:28.748Z,0.98
2022-11-02T01:18:11.584Z,0.82
2022-11-02T01:20:57.234Z,1.10
2022-11-02T01:23:41.328Z,0.80
2022-11-02T01:26:26.450Z,1.00
2022-11-02T01:29:09.197Z,0.60
2022-11-02T01:31:53.730Z,1.10
2022-11-02T01:34:37.049Z,0.82
2022-11-02T01:37:19.969Z,1.10
2022-11-02T01:40:05.553Z,0.73
2022-11-02T01:42:48.470Z,0.90
2022-11-02T01:45:31.385Z,1.10
2022-11-02T01:48:14.198Z,1.05
2022-11-02T01:50:57.652Z,0.80
2022-11-02T01:53:43.319Z,1.15
2022-11-02T01:56:30.811Z,1.20
2022-11-02T01:59:16.118Z,0.90
2022-11-02T02:01:59.135Z,1.00
2022-11-02T02:04:42.255Z,0.90
2022-11-02T02:07:26.920Z,1.17
2022-11-02T02:10:10.142Z,1.00
2022-11-02T02:12:54.427Z,1.17
2022-11-02T02:15:41.665Z,0.93
2022-11-02T02:18:27.323Z,1.10
2022-11-02T02:21:21.215Z,0.80
2022-11-02T02:24:15.665Z,0.85
2022-11-02T02:27:05.155Z,1.08
2022-11-02T02:29:52.788Z,0.70
2022-11-02T02:32:39.779Z,1.02
2022-11-02T02:35:25.411Z,1.00
2022-11-02T02:38:11.667Z,0.90
2022-11-02T02:40:59.232Z,0.75
2022-11-02T02:43:43.788Z,1.02
2022-11-02T02:46:34.439Z,1.02
2022-11-02T02:49:19.750Z,0.80
2022-11-02T02:52:03.509Z,1.02
2022-11-02T02:54:47.732Z,0.90
2022-11-02T02:57:31.945Z,0.95
2022-11-02T03:00:16.893Z,0.88
2022-11-02T03:03:02.403Z,0.85
2022-11-02T03:05:45.328Z,0.73
2022-11-02T03:08:28.458Z,1.35
2022-11-02T03:11:14.634Z,1.00
2022-11-02T03:14:05.435Z,0.75
2022-11-02T03:17:01.375Z,1.05
2022-11-02T03:19:50.806Z,1.25
2022-11-02T03:22:36.006Z,1.02
2022-11-02T03:25:22.988Z,1.25
2022-11-02T03:28:10.353Z,0.77
2022-11-02T03:30:55.933Z,0.85
2022-11-02T03:33:41.337Z,0.85
2022-11-02T03:36:30.173Z,0.75
2022-11-02T03:39:14.741Z,1.00
2022-11-02T03:42:00.853Z,0.75
2022-11-02T03:44:44.773Z,0.85
2022-11-02T03:47:31.072Z,0.90
2022-11-02T03:50:17.904Z,0.90
2022-11-02T03:53:05.592Z,1.08
2022-11-02T03:55:52.149Z,1.00
2022-11-02T03:58:36.496Z,1.00
2022-11-02T04:01:20.406Z,0.90
2022-11-02T04:04:05.150Z,0.80
2022-11-02T04:06:49.250Z,0.90
2022-11-02T04:09:34.715Z,0.90
2022-11-02T04:12:35.105Z,0.80
2022-11-02T04:15:18.267Z,1.08
2022-11-02T04:18:18.656Z,0.90
2022-11-02T04:21:01.719Z,0.93
2022-11-02T04:24:01.636Z,0.90
2022-11-02T04:26:45.842Z,0.80
2022-11-02T04:29:28.776Z,0.82
2022-11-02T04:32:11.821Z,0.90
2022-11-02T04:34:53.881Z,1.00
2022-11-02T04:37:57.916Z,0.90
2022-11-02T04:40:40.812Z,0.90
2022-11-02T04:43:24.890Z,1.05
2022-11-02T04:46:07.876Z,0.73
2022-11-02T04:48:51.224Z,0.85
2022-11-02T04:51:35.203Z,0.98
2022-11-02T04:54:18.507Z,0.90
2022-11-02T04:57:03.343Z,0.88
2022-11-02T04:59:48.926Z,0.98
2022-11-02T05:02:31.904Z,0.90
2022-11-02T05:05:15.178Z,0.85
2022-11-02T05:07:58.507Z,1.10
2022-11-02T05:10:41.473Z,0.70
2022-11-02T05:13:24.594Z,1.00
2022-11-02T05:16:11.458Z,0.90
2022-11-02T05:18:54.789Z,1.00
2022-11-02T05:21:39.137Z,0.82
2022-11-02T05:24:22.365Z,0.85
2022-11-02T05:27:06.449Z,0.98
2022-11-02T05:29:52.403Z,1.10
2022-11-02T05:32:36.470Z,0.95
2022-11-02T05:35:19.284Z,0.82
2022-11-02T05:38:03.035Z,1.17
2022-11-02T05:40:46.118Z,1.20
2022-11-02T05:43:29.235Z,1.30
2022-11-02T05:46:14.866Z,0.95
2022-11-02T05:48:58.966Z,0.73
2022-11-02T05:51:41.783Z,0.88
2022-11-02T05:54:24.716Z,0.88
2022-11-02T05:57:07.617Z,1.00
2022-11-02T05:59:50.470Z,1.10
2022-11-02T06:02:34.891Z,1.40
2022-11-02T06:05:19.166Z,1.23
2022-11-02T06:08:02.164Z,0.90
2022-11-02T06:10:44.981Z,1.10
2022-11-02T06:13:27.718Z,1.15
2022-11-02T06:16:11.340Z,1.10
2022-11-02T06:18:54.089Z,1.25
2022-11-02T06:21:38.418Z,1.33
2022-11-02T06:24:21.320Z,1.00
2022-11-02T06:27:04.175Z,1.30
2022-11-02T06:29:47.565Z,1.10
2022-11-02T06:32:30.315Z,0.93
2022-11-02T06:35:13.420Z,1.10
2022-11-02T06:37:57.757Z,1.27
2022-11-02T06:40:40.520Z,1.05
2022-11-02T06:43:23.837Z,1.30
2022-11-02T06:46:06.918Z,0.90
2022-11-02T06:48:49.853Z,1.05
2022-11-02T06:51:32.608Z,1.33
2022-11-02T06:54:16.806Z,1.00
2022-11-02T06:56:59.564Z,0.95
2022-11-02T06:59:42.236Z,1.33
2022-11-02T07:02:25.032Z,1.10
2022-11-02T07:05:08.174Z,1.15
2022-11-02T07:07:53.645Z,0.90
2022-11-02T07:10:37.825Z,1.27
2022-11-02T07:13:20.810Z,0.80
2022-11-02T07:16:03.527Z,1.15
2022-11-02T07:18:46.280Z,1.08
2022-11-02T07:21:29.075Z,0.90
2022-11-02T07:24:11.881Z,1.00
2022-11-02T07:26:56.121Z,1.10
2022-11-02T07:29:38.867Z,1.17
2022-11-02T07:32:21.695Z,1.00
2022-11-02T07:35:04.605Z,1.30
2022-11-02T07:37:55.989Z,1.15
2022-11-02T07:40:39.530Z,1.00
2022-11-02T07:43:23.776Z,1.17
2022-11-02T07:46:15.098Z,1.05
2022-11-02T07:48:58.427Z,1.00
2022-11-02T07:51:41.239Z,0.90
2022-11-02T07:54:24.101Z,1.10
2022-11-02T07:57:06.973Z,0.90
2022-11-02T07:59:51.457Z,0.70
2022-11-02T08:02:34.310Z,1.23
2022-11-02T08:05:17.263Z,1.15
2022-11-02T08:08:00.313Z,1.08
2022-11-02T08:10:43.455Z,1.23
2022-11-02T08:13:27.043Z,1.30
2022-11-02T08:16:11.277Z,0.98
2022-11-02T08:18:54.074Z,0.80
2022-11-02T08:21:36.788Z,0.73
2022-11-02T08:24:19.627Z,0.80
2022-11-02T08:27:02.347Z,0.88
2022-11-02T08:29:45.182Z,0.63
2022-11-02T08:32:29.306Z,1.13
2022-11-02T08:35:12.075Z,1.02
2022-11-02T08:37:55.455Z,0.90
2022-11-02T08:40:38.503Z,0.70
2022-11-02T08:43:21.401Z,1.05
2022-11-02T08:46:19.408Z,0.80
2022-11-02T08:49:03.728Z,0.90
2022-11-02T08:51:46.644Z,0.80
2022-11-02T08:54:29.457Z,0.90
2022-11-02T08:57:12.273Z,0.85
2022-11-02T08:59:55.295Z,0.93
2022-11-02T09:02:38.208Z,0.80
2022-11-02T09:05:22.670Z,0.85
2022-11-02T09:08:06.813Z,0.70
2022-11-02T09:10:51.007Z,0.90
2022-11-02T09:13:33.957Z,0.90
2022-11-02T09:16:16.750Z,0.82
2022-11-02T09:18:59.609Z,0.90
2022-11-02T09:21:48.098Z,0.73
2022-11-02T09:24:30.894Z,0.70
2022-11-02T09:27:13.608Z,0.60
2022-11-02T09:29:56.602Z,0.80
2022-11-02T09:32:39.760Z,0.70
2022-11-02T09:35:22.823Z,1.17
2022-11-02T09:38:06.931Z,0.80
2022-11-02T09:40:54.637Z,0.93
2022-11-02T09:43:41.265Z,0.82
2022-11-02T09:46:26.948Z,0.68
2022-11-02T09:49:12.971Z,1.05
2022-11-02T09:51:57.153Z,0.90
2022-11-02T09:54:42.979Z,0.60
2022-11-02T09:57:28.675Z,0.65
2022-11-02T10:00:13.845Z,0.80
2022-11-02T10:03:00.266Z,1.00
2022-11-02T10:05:44.350Z,0.80
2022-11-02T10:08:32.386Z,0.90
2022-11-02T10:11:20.015Z,0.98
2022-11-02T10:14:06.628Z,0.70
2022-11-02T10:16:53.855Z,0.80
2022-11-02T10:19:41.289Z,0.70
2022-11-02T10:22:26.565Z,0.70
2022-11-02T10:25:14.688Z,0.70
2022-11-02T10:28:04.372Z,0.47
2022-11-02T10:30:47.387Z,0.80
2022-11-02T10:33:30.826Z,0.80
2022-11-02T10:36:21.834Z,0.60
2022-11-02T10:39:10.987Z,0.50
2022-11-02T10:42:12.071Z,0.60
2022-11-02T10:45:05.633Z,0.60
2022-11-02T10:47:55.440Z,0.70
2022-11-02T10:50:45.886Z,0.60
2022-11-02T10:53:41.120Z,0.70
2022-11-02T10:56:25.169Z,0.60
2022-11-02T10:59:12.692Z,0.50
2022-11-02T11:02:11.082Z,1.00
2022-11-02T11:04:58.144Z,0.75
2022-11-02T11:07:44.780Z,0.70
2022-11-02T11:10:27.684Z,0.70
2022-11-02T11:16:24.191Z,0.60
2022-11-02T11:22:27.446Z,0.80
2022-11-02T11:25:28.522Z,0.85
2022-11-02T11:28:23.384Z,0.50
2022-11-02T11:31:11.040Z,0.60
2022-11-02T11:33:54.853Z,0.65
2022-11-02T11:36:39.120Z,0.95
2022-11-02T11:39:25.428Z,0.70
2022-11-02T11:42:15.502Z,0.60
2022-11-02T11:45:00.420Z,0.70
2022-11-02T11:47:43.569Z,0.60
2022-11-02T11:50:27.879Z,0.57
2022-11-02T11:53:25.186Z,0.73
2022-11-02T11:56:25.978Z,0.77
2022-11-02T11:59:18.093Z,0.85
2022-11-02T12:02:03.772Z,0.70
2022-11-02T12:04:46.663Z,0.50
2022-11-02T12:07:52.008Z,0.77
2022-11-02T12:10:48.817Z,0.43
2022-11-02T12:13:40.488Z,0.50
2022-11-02T12:16:29.133Z,0.60
2022-11-02T12:19:19.336Z,0.52
2022-11-02T12:22:05.104Z,0.80
2022-11-02T12:25:06.757Z,1.10
2022-11-02T12:27:54.168Z,0.60
2022-11-02T12:30:43.552Z,0.60
2022-11-02T12:33:34.396Z,0.60
2022-11-02T12:36:24.160Z,0.57
2022-11-02T12:39:08.803Z,0.50
2022-11-02T12:41:56.426Z,0.70
2022-11-02T12:44:53.918Z,0.60
2022-11-02T12:47:48.769Z,0.70
2022-11-02T12:50:38.678Z,0.70
2022-11-02T12:53:41.652Z,0.65
2022-11-02T12:56:26.365Z,1.02
2022-11-02T12:59:12.404Z,0.60
2022-11-02T13:01:58.702Z,0.55
2022-11-02T13:04:47.871Z,0.50
2022-11-02T13:07:32.488Z,0.80
2022-11-02T13:10:16.848Z,1.02
2022-11-02T13:13:01.124Z,0.80
2022-11-02T13:15:45.588Z,0.77
2022-11-02T13:18:30.272Z,0.70
2022-11-02T13:21:16.126Z,0.85
2022-11-02T13:24:00.822Z,0.60
2022-11-02T13:26:44.572Z,0.57
2022-11-02T13:29:32.071Z,0.50
2022-11-02T13:32:18.989Z,0.73
2022-11-02T13:35:05.977Z,0.65
2022-11-02T13:37:52.808Z,0.60
2022-11-02T13:40:38.795Z,0.50
2022-11-02T13:43:34.647Z,0.40
2022-11-02T13:46:25.226Z,0.55
2022-11-02T13:49:13.879Z,0.43
2022-11-02T13:51:59.662Z,0.55
2022-11-02T13:54:45.212Z,0.82
2022-11-02T13:57:33.045Z,0.70
2022-11-02T14:00:29.317Z,0.43
2022-11-02T14:03:15.325Z,0.60
2022-11-02T14:05:59.219Z,0.60
2022-11-02T14:08:43.894Z,0.60
2022-11-02T14:11:33.884Z,0.93
2022-11-02T14:14:17.927Z,0.63
2022-11-02T14:17:12.538Z,0.70
2022-11-02T14:19:56.469Z,0.57
2022-11-02T14:22:39.261Z,0.80
2022-11-02T14:25:22.078Z,0.80
2022-11-02T14:28:30.221Z,0.80
2022-11-02T14:31:30.988Z,0.85
2022-11-02T14:34:28.654Z,0.70
2022-11-02T14:37:30.064Z,0.70
2022-11-02T14:40:20.056Z,0.70
2022-11-02T14:43:08.358Z,0.70
2022-11-02T14:46:09.736Z,0.70
2022-11-02T14:48:53.907Z,0.70
2022-11-02T14:51:37.808Z,0.70
2022-11-02T14:54:21.269Z,1.00
2022-11-02T14:57:06.008Z,0.63
2022-11-02T14:59:50.777Z,0.90
2022-11-02T15:02:40.306Z,0.73
2022-11-02T15:05:28.341Z,0.55
2022-11-02T15:08:21.412Z,0.75
2022-11-02T15:11:18.958Z,0.57
2022-11-02T15:14:01.695Z,0.57
2022-11-02T15:16:45.664Z,0.70
2022-11-02T15:19:40.653Z,0.70
2022-11-02T15:22:36.306Z,0.80
2022-11-02T15:25:21.151Z,0.80
2022-11-02T15:28:08.407Z,0.63
2022-11-02T15:30:52.345Z,0.68
2022-11-02T15:37:01.570Z,0.70
2022-11-02T15:39:48.875Z,0.70
2022-11-02T15:42:38.272Z,0.60
2022-11-02T15:45:49.059Z,0.52
2022-11-02T15:48:38.759Z,0.82
2022-11-02T15:51:23.078Z,0.98
2022-11-02T15:54:14.150Z,0.75
2022-11-02T15:57:05.567Z,0.90
2022-11-02T16:00:04.738Z,1.02
2022-11-02T16:02:52.514Z,0.70
2022-11-02T16:05:42.996Z,0.75
2022-11-02T16:08:31.813Z,0.60
2022-11-02T16:11:18.355Z,0.70
2022-11-02T16:14:16.231Z,0.63
2022-11-02T16:16:59.275Z,0.63
2022-11-02T16:19:42.018Z,1.27
2022-11-02T16:22:26.981Z,0.85
2022-11-02T16:25:11.686Z,0.65
2022-11-02T16:27:55.801Z,0.82
2022-11-02T16:30:38.900Z,1.02
2022-11-02T16:33:21.763Z,0.75
2022-11-02T16:36:05.042Z,0.75
2022-11-02T16:38:49.035Z,0.93
2022-11-02T16:41:33.026Z,0.80
2022-11-02T16:44:21.019Z,0.75
2022-11-02T16:47:18.222Z,0.75
2022-11-02T16:50:00.949Z,0.90
2022-11-02T16:52:43.751Z,1.00
2022-11-02T16:55:40.238Z,0.70
2022-11-02T16:58:24.177Z,0.70
2022-11-02T17:01:16.310Z,0.77
2022-11-02T17:03:59.240Z,0.95
2022-11-02T17:06:43.038Z,0.80
2022-11-02T17:09:33.003Z,0.90
2022-11-02T17:12:17.313Z,0.88
2022-11-02T17:15:01.355Z,1.00
2022-11-02T17:17:45.870Z,0.98
2022-11-02T17:20:28.875Z,0.90
2022-11-02T17:23:29.974Z,1.10
2022-11-02T17:26:27.611Z,1.00
2022-11-02T17:29:29.094Z,1.00
2022-11-02T17:32:14.211Z,1.20
2022-11-02T17:34:59.126Z,1.05
2022-11-02T17:37:41.864Z,1.00
2022-11-02T17:40:24.738Z,1.10
2022-11-02T17:43:06.449Z,0.90
2022-11-02T17:45:54.822Z,0.80
2022-11-02T17:48:37.565Z,0.80
2022-11-02T17:51:23.213Z,1.00
2022-11-02T17:54:06.006Z,0.80
2022-11-02T17:56:48.827Z,1.00
2022-11-02T17:59:31.642Z,1.10
2022-11-02T18:02:15.210Z,1.30
2022-11-02T18:04:58.219Z,1.30
2022-11-02T18:07:42.463Z,1.67
2022-11-02T18:10:25.984Z,1.05
2022-11-02T18:13:09.069Z,1.38
2022-11-02T18:15:51.825Z,1.20
2022-11-02T18:18:34.646Z,1.30
2022-11-02T18:21:17.517Z,0.90
2022-11-02T18:24:02.017Z,1.30
2022-11-02T18:26:46.929Z,1.15
2022-11-02T18:29:30.008Z,1.27
2022-11-02T18:32:13.030Z,1.48
2022-11-02T18:34:55.844Z,1.40
2022-11-02T18:37:39.071Z,1.30
2022-11-02T18:40:23.120Z,1.40
2022-11-02T18:43:06.132Z,1.38
2022-11-02T18:45:49.050Z,1.50
2022-11-02T18:48:31.781Z,1.08
2022-11-02T18:51:14.898Z,1.50
2022-11-02T18:53:58.460Z,1.45
2022-11-02T18:56:42.670Z,1.40
2022-11-02T18:59:25.554Z,1.40
2022-11-02T19:02:08.621Z,1.30
2022-11-02T19:04:51.680Z,1.40
2022-11-02T19:07:52.052Z,1.23
2022-11-02T19:10:34.946Z,1.25
2022-11-02T19:13:19.217Z,1.42
2022-11-02T19:16:02.135Z,1.00
2022-11-02T19:18:47.413Z,1.85
2022-11-02T19:21:30.511Z,1.30
2022-11-02T19:24:13.456Z,1.30
2022-11-02T19:26:56.533Z,1.30
2022-11-02T19:29:40.782Z,1.42
2022-11-02T19:32:23.815Z,1.60
2022-11-02T19:35:06.783Z,1.60
2022-11-02T19:37:49.642Z,1.20
2022-11-02T19:40:33.932Z,2.05
2022-11-02T19:43:16.709Z,1.52
2022-11-02T19:46:04.261Z,1.75
2022-11-02T19:48:47.110Z,1.75
2022-11-02T19:51:30.641Z,1.38
2022-11-02T19:54:13.543Z,1.50
2022-11-02T19:56:56.304Z,2.28
2022-11-02T19:59:39.092Z,1.80
2022-11-02T20:02:23.353Z,2.10
2022-11-02T20:05:06.472Z,1.90
2022-11-02T20:07:49.264Z,2.30
2022-11-02T20:10:32.000Z,2.00
2022-11-02T20:13:14.797Z,2.25
2022-11-02T20:15:57.969Z,2.00
2022-11-02T20:18:43.237Z,1.80
2022-11-02T20:21:31.555Z,1.60
2022-11-02T20:24:17.638Z,1.48
2022-11-02T20:27:03.006Z,1.80
2022-11-02T20:29:46.645Z,1.52
2022-11-02T20:32:30.293Z,1.70
2022-11-02T20:35:14.852Z,1.73
2022-11-02T20:37:57.687Z,1.60
2022-11-02T20:40:41.430Z,1.80
2022-11-02T20:43:24.886Z,1.83
2022-11-02T20:46:35.819Z,1.98
2022-11-02T20:49:22.105Z,1.70
2022-11-02T20:52:13.321Z,1.83
2022-11-02T20:54:56.137Z,1.85
2022-11-02T20:57:39.067Z,1.60
2022-11-02T21:00:22.500Z,1.88
2022-11-02T21:03:05.759Z,2.00
2022-11-02T21:05:50.011Z,1.73
2022-11-02T21:11:39.587Z,1.83
2022-11-02T21:14:22.509Z,1.90
2022-11-02T21:17:06.053Z,1.85
2022-11-02T21:19:54.222Z,1.88
2022-11-02T21:22:40.712Z,1.98
2022-11-02T21:25:25.118Z,1.58
2022-11-02T21:28:07.962Z,1.77
2022-11-02T21:30:50.849Z,2.00
2022-11-02T21:33:33.979Z,1.58
2022-11-02T21:36:17.216Z,1.80
2022-11-02T21:38:59.969Z,1.60
2022-11-02T21:41:44.285Z,1.35
2022-11-02T21:44:27.105Z,1.40
2022-11-02T21:47:09.871Z,1.80
2022-11-02T21:49:52.992Z,1.60
2022-11-02T21:52:37.030Z,1.50
2022-11-02T21:55:19.977Z,1.60
2022-11-02T21:58:04.210Z,1.70
2022-11-02T22:01:12.959Z,1.55
2022-11-02T22:03:55.811Z,1.90
2022-11-02T22:06:38.630Z,1.58
2022-11-02T22:09:21.541Z,1.30
2022-11-02T22:12:21.773Z,1.40
2022-11-02T22:15:06.756Z,1.55
2022-11-02T22:17:50.273Z,1.55
2022-11-02T22:20:33.234Z,1.48
2022-11-02T22:23:16.016Z,1.48
2022-11-02T22:25:59.280Z,1.70
2022-11-02T22:28:42.971Z,1.60
2022-11-02T22:31:27.868Z,1.20
2022-11-02T22:34:11.477Z,1.40
2022-11-02T22:37:14.470Z,1.20
2022-11-02T22:39:56.183Z,1.23
2022-11-02T22:42:41.541Z,1.50
2022-11-02T22:45:25.409Z,1.40
2022-11-02T22:48:09.596Z,1.13
2022-11-02T22:50:52.351Z,1.33
2022-11-02T22:53:35.093Z,1.20
2022-11-02T22:56:18.969Z,1.48
2022-11-02T22:59:02.155Z,1.38
2022-11-02T23:01:45.392Z,1.38
2022-11-02T23:04:29.729Z,1.45
2022-11-02T23:07:12.858Z,1.50
2022-11-02T23:09:55.677Z,1.63
2022-11-02T23:12:37.484Z,1.60
2022-11-02T23:15:20.206Z,1.50
2022-11-02T23:18:02.909Z,1.05
2022-11-02T23:20:51.958Z,0.95
2022-11-02T23:23:52.285Z,1.13
2022-11-02T23:26:35.100Z,1.60
2022-11-02T23:29:35.426Z,1.35
2022-11-02T23:32:27.796Z,1.23
2022-11-02T23:35:28.402Z,1.50
2022-11-02T23:38:12.863Z,1.40
2022-11-02T23:40:55.982Z,1.27
2022-11-02T23:43:38.912Z,1.25
2022-11-02T23:46:21.679Z,1.13
2022-11-02T23:49:04.554Z,1.10
2022-11-02T23:52:05.066Z,1.52
2022-11-02T23:55:06.949Z,1.38
2022-11-02T23:57:49.649Z,1.50
